createdAt,value
2017-07-09T00:00:50.574Z,20.20
2017-07-09T00:03:18.076Z,20.21
2017-07-09T00:05:45.577Z,20.05
2017-07-09T00:08:13.077Z,20.05
2017-07-09T00:10:40.548Z,20.11
2017-07-09T00:13:08.196Z,19.98
2017-07-09T00:15:35.676Z,19.94
2017-07-09T00:18:03.149Z,20.03
2017-07-09T00:20:30.653Z,19.98
2017-07-09T00:22:58.140Z,19.97
2017-07-09T00:25:26.061Z,19.95
2017-07-09T00:27:53.534Z,19.89
2017-07-09T00:30:21.022Z,19.87
2017-07-09T00:32:48.520Z,19.85
2017-07-09T00:35:16.008Z,19.74
2017-07-09T00:37:43.511Z,19.70
2017-07-09T00:40:10.983Z,19.87
2017-07-09T00:42:38.485Z,19.82
2017-07-09T00:45:05.985Z,19.74
2017-07-09T00:47:33.463Z,19.65
2017-07-09T00:50:00.967Z,19.68
2017-07-09T00:52:28.441Z,19.71
2017-07-09T00:54:55.940Z,19.75
2017-07-09T00:57:23.421Z,19.74
2017-07-09T00:59:51.109Z,19.86
2017-07-09T01:02:18.593Z,19.91
2017-07-09T01:04:46.069Z,19.95
2017-07-09T01:07:13.722Z,19.89
2017-07-09T01:09:41.202Z,19.83
2017-07-09T01:12:08.677Z,19.95
2017-07-09T01:14:36.177Z,20.03
2017-07-09T01:17:03.690Z,20.02
2017-07-09T01:19:31.160Z,19.95
2017-07-09T01:21:58.644Z,19.85
2017-07-09T01:24:26.157Z,19.76
2017-07-09T01:26:53.650Z,19.72
2017-07-09T01:29:21.128Z,19.70
2017-07-09T01:31:48.650Z,19.65
2017-07-09T01:34:16.132Z,19.68
2017-07-09T01:36:43.613Z,19.61
2017-07-09T01:39:11.124Z,19.59
2017-07-09T01:41:38.611Z,19.68
2017-07-09T01:44:06.108Z,19.66
2017-07-09T01:46:33.603Z,19.53
2017-07-09T01:49:01.095Z,19.48
2017-07-09T01:51:28.599Z,19.38
2017-07-09T01:53:56.102Z,19.34
2017-07-09T01:56:23.582Z,19.29
2017-07-09T01:58:51.042Z,19.30
2017-07-09T02:01:18.522Z,19.37
2017-07-09T02:03:45.985Z,19.38
2017-07-09T02:06:13.477Z,19.23
2017-07-09T02:08:40.963Z,19.38
2017-07-09T02:11:08.422Z,19.31
2017-07-09T02:13:36.132Z,19.20
2017-07-09T02:16:03.615Z,19.28
2017-07-09T02:18:31.075Z,19.18
2017-07-09T02:20:58.560Z,19.16
2017-07-09T02:23:26.047Z,19.25
2017-07-09T02:25:53.542Z,19.23
2017-07-09T02:28:21.007Z,19.14
2017-07-09T02:30:48.469Z,19.08
2017-07-09T02:33:15.955Z,19.00
2017-07-09T02:35:43.448Z,19.04
2017-07-09T02:38:10.910Z,19.11
2017-07-09T02:40:38.391Z,19.12
2017-07-09T02:43:05.836Z,19.01
2017-07-09T02:45:33.350Z,18.85
2017-07-09T02:48:00.818Z,18.83
2017-07-09T02:50:28.310Z,18.92
2017-07-09T02:52:55.778Z,18.84
2017-07-09T02:55:23.257Z,18.82
2017-07-09T02:57:50.743Z,18.88
2017-07-09T03:00:18.217Z,18.89
2017-07-09T03:02:45.742Z,18.91
2017-07-09T03:05:13.239Z,18.94
2017-07-09T03:07:40.701Z,18.92
2017-07-09T03:10:08.159Z,18.83
2017-07-09T03:12:35.641Z,18.85
2017-07-09T03:15:03.094Z,18.84
2017-07-09T03:17:30.703Z,18.73
2017-07-09T03:19:58.167Z,18.78
2017-07-09T03:22:25.629Z,18.72
2017-07-09T03:24:53.123Z,18.60
2017-07-09T03:27:20.609Z,18.69
2017-07-09T03:29:48.074Z,18.75
2017-07-09T03:32:15.550Z,18.79
2017-07-09T03:34:43.031Z,18.81
2017-07-09T03:37:10.508Z,18.86
2017-07-09T03:39:37.985Z,18.89
2017-07-09T03:42:05.449Z,18.96
2017-07-09T03:44:32.936Z,18.95
2017-07-09T03:47:00.399Z,19.05
2017-07-09T03:49:28.294Z,19.19
2017-07-09T03:51:55.762Z,19.18
2017-07-09T03:54:23.222Z,19.28
2017-07-09T03:56:50.697Z,19.09
2017-07-09T03:59:18.164Z,19.17
2017-07-09T04:01:45.902Z,19.07
2017-07-09T04:04:13.366Z,19.15
2017-07-09T04:06:40.836Z,19.19
2017-07-09T04:09:08.326Z,19.28
2017-07-09T04:11:35.797Z,19.32
2017-07-09T04:14:03.282Z,19.33
2017-07-09T04:16:30.746Z,19.43
2017-07-09T04:18:58.425Z,19.48
2017-07-09T04:21:25.891Z,19.49
2017-07-09T04:23:53.357Z,19.52
2017-07-09T04:26:20.856Z,19.55
2017-07-09T04:28:48.346Z,19.55
2017-07-09T04:31:15.806Z,19.64
2017-07-09T04:33:43.292Z,19.80
2017-07-09T04:36:10.774Z,19.73
2017-07-09T04:38:38.244Z,19.60
2017-07-09T04:41:05.761Z,19.70
2017-07-09T04:43:33.220Z,19.55
2017-07-09T04:46:00.673Z,19.72
2017-07-09T04:48:28.155Z,19.79
2017-07-09T04:50:55.654Z,19.77
2017-07-09T04:53:23.115Z,19.77
2017-07-09T04:55:50.611Z,19.82
2017-07-09T04:58:18.077Z,19.89
2017-07-09T05:00:45.557Z,19.91
2017-07-09T05:03:13.018Z,20.01
2017-07-09T05:05:40.518Z,20.17
2017-07-09T05:08:07.999Z,20.26
2017-07-09T05:10:35.491Z,20.50
2017-07-09T05:13:02.981Z,20.45
2017-07-09T05:15:30.459Z,20.63
2017-07-09T05:17:57.954Z,20.70
2017-07-09T05:20:25.419Z,20.82
2017-07-09T05:22:52.914Z,20.82
2017-07-09T05:25:20.371Z,20.86
2017-07-09T05:27:47.834Z,20.86
2017-07-09T05:30:15.328Z,21.07
2017-07-09T05:32:42.844Z,21.12
2017-07-09T05:35:10.316Z,21.16
2017-07-09T05:37:38.076Z,21.46
2017-07-09T05:40:05.570Z,21.65
2017-07-09T05:42:33.029Z,21.97
2017-07-09T05:45:00.528Z,22.05
2017-07-09T05:47:27.990Z,22.19
2017-07-09T05:49:55.469Z,22.73
2017-07-09T05:52:22.930Z,22.73
2017-07-09T05:54:50.421Z,23.06
2017-07-09T05:57:17.886Z,23.29
2017-07-09T05:59:45.379Z,23.40
2017-07-09T06:02:12.848Z,23.61
2017-07-09T06:04:40.338Z,23.34
2017-07-09T06:07:07.798Z,23.38
2017-07-09T06:09:35.294Z,23.60
2017-07-09T06:12:02.775Z,23.51
2017-07-09T06:14:30.254Z,24.09
2017-07-09T06:16:57.737Z,24.17
2017-07-09T06:19:25.199Z,24.22
2017-07-09T06:21:52.707Z,24.08
2017-07-09T06:24:20.167Z,23.90
2017-07-09T06:26:47.646Z,23.55
2017-07-09T06:29:15.126Z,23.36
2017-07-09T06:31:42.597Z,23.28
2017-07-09T06:34:10.111Z,23.80
2017-07-09T06:36:37.576Z,23.77
2017-07-09T06:39:05.043Z,23.42
2017-07-09T06:41:32.526Z,23.47
2017-07-09T06:43:59.998Z,23.96
2017-07-09T06:46:27.494Z,24.15
2017-07-09T06:48:54.955Z,24.26
2017-07-09T06:51:22.455Z,24.36
2017-07-09T06:53:49.919Z,24.37
2017-07-09T06:56:17.400Z,24.09
2017-07-09T06:58:45.171Z,24.17
2017-07-09T07:01:12.666Z,24.28
2017-07-09T07:03:40.128Z,24.38
2017-07-09T07:06:07.628Z,24.49
2017-07-09T07:08:35.085Z,24.63
2017-07-09T07:11:02.583Z,24.57
2017-07-09T07:13:30.231Z,24.63
2017-07-09T07:15:57.709Z,24.70
2017-07-09T07:18:25.167Z,24.57
2017-07-09T07:20:52.657Z,24.60
2017-07-09T07:23:20.138Z,24.60
2017-07-09T07:25:47.610Z,24.80
2017-07-09T07:28:15.090Z,25.02
2017-07-09T07:30:42.586Z,25.15
2017-07-09T07:33:10.047Z,25.04
2017-07-09T07:35:37.530Z,25.11
2017-07-09T07:38:05.048Z,25.72
2017-07-09T07:40:32.512Z,25.75
2017-07-09T07:42:59.975Z,25.84
2017-07-09T07:45:27.453Z,25.69
2017-07-09T07:47:54.923Z,25.44
2017-07-09T07:50:22.405Z,25.84
2017-07-09T07:52:49.882Z,25.70
2017-07-09T07:55:17.370Z,25.61
2017-07-09T07:57:44.873Z,25.65
2017-07-09T08:00:12.334Z,25.75
2017-07-09T08:02:39.802Z,25.98
2017-07-09T08:05:07.307Z,26.18
2017-07-09T08:07:34.778Z,26.26
2017-07-09T08:10:02.283Z,26.40
2017-07-09T08:12:29.740Z,26.26
2017-07-09T08:14:57.218Z,26.25
2017-07-09T08:17:24.679Z,26.42
2017-07-09T08:19:52.183Z,26.89
2017-07-09T08:22:19.641Z,27.14
2017-07-09T08:24:47.110Z,27.41
2017-07-09T08:27:14.598Z,27.54
2017-07-09T08:29:42.057Z,27.75
2017-07-09T08:32:09.527Z,28.00
2017-07-09T08:34:37.003Z,28.03
2017-07-09T08:37:04.487Z,28.40
2017-07-09T08:39:31.945Z,28.02
2017-07-09T08:41:59.443Z,27.99
2017-07-09T08:44:26.914Z,28.25
2017-07-09T08:46:54.403Z,28.12
2017-07-09T08:49:21.880Z,27.75
2017-07-09T08:51:49.391Z,27.87
2017-07-09T08:54:16.858Z,27.97
2017-07-09T08:56:44.310Z,28.11
2017-07-09T08:59:11.786Z,27.85
2017-07-09T09:01:39.238Z,27.87
2017-07-09T09:04:06.727Z,28.02
2017-07-09T09:06:34.183Z,28.52
2017-07-09T09:09:01.639Z,28.60
2017-07-09T09:11:29.140Z,28.53
2017-07-09T09:13:56.614Z,28.71
2017-07-09T09:16:24.068Z,28.53
2017-07-09T09:18:51.572Z,28.44
2017-07-09T09:21:19.037Z,28.94
2017-07-09T09:23:46.498Z,28.96
2017-07-09T09:26:13.978Z,28.90
2017-07-09T09:28:41.428Z,28.77
2017-07-09T09:31:08.911Z,28.23
2017-07-09T09:33:36.373Z,28.09
2017-07-09T09:36:03.854Z,28.14
2017-07-09T09:38:31.345Z,28.36
2017-07-09T09:40:58.838Z,28.72
2017-07-09T09:43:26.315Z,29.15
2017-07-09T09:45:53.796Z,29.12
2017-07-09T09:48:21.302Z,28.97
2017-07-09T09:50:48.772Z,29.36
2017-07-09T09:53:16.238Z,29.32
2017-07-09T10:02:26.948Z,30.51
2017-07-09T10:04:54.410Z,29.99
2017-07-09T10:07:21.899Z,30.40
2017-07-09T10:09:49.410Z,30.16
2017-07-09T10:12:16.873Z,28.95
2017-07-09T10:14:44.326Z,29.37
2017-07-09T10:17:11.826Z,29.49
2017-07-09T10:19:39.286Z,29.10
2017-07-09T10:22:06.775Z,29.11
2017-07-09T10:24:34.238Z,29.61
2017-07-09T10:27:01.742Z,29.06
2017-07-09T10:29:29.227Z,28.90
2017-07-09T10:31:56.706Z,29.05
2017-07-09T10:34:24.210Z,29.41
2017-07-09T10:36:51.719Z,29.43
2017-07-09T10:39:19.178Z,29.51
2017-07-09T10:41:46.691Z,29.64
2017-07-09T10:44:14.149Z,29.40
2017-07-09T10:46:41.607Z,29.03
2017-07-09T10:49:09.101Z,29.22
2017-07-09T10:51:36.703Z,28.98
2017-07-09T10:54:04.154Z,29.26
2017-07-09T10:56:31.614Z,28.88
2017-07-09T10:58:59.110Z,28.88
2017-07-09T11:01:26.594Z,28.74
2017-07-09T11:03:54.042Z,28.97
2017-07-09T11:06:21.761Z,28.83
2017-07-09T11:08:49.273Z,29.02
2017-07-09T11:11:16.687Z,29.06
2017-07-09T11:13:44.166Z,29.21
2017-07-09T11:16:11.623Z,29.25
2017-07-09T11:18:39.107Z,29.00
2017-07-09T11:21:06.599Z,29.01
2017-07-09T11:23:34.064Z,28.78
2017-07-09T11:26:01.548Z,27.84
2017-07-09T11:28:29.019Z,28.29
2017-07-09T11:30:56.479Z,28.33
2017-07-09T11:33:24.166Z,28.23
2017-07-09T11:35:51.631Z,27.65
2017-07-09T11:38:19.094Z,27.84
2017-07-09T11:40:46.802Z,27.77
2017-07-09T11:43:14.255Z,27.30
2017-07-09T11:45:41.711Z,27.69
2017-07-09T11:48:09.183Z,27.66
2017-07-09T11:50:36.946Z,27.60
2017-07-09T11:53:04.404Z,27.73
2017-07-09T11:55:31.884Z,27.35
2017-07-09T11:57:59.358Z,27.69
2017-07-09T12:00:26.845Z,27.50
2017-07-09T12:02:54.568Z,27.35
2017-07-09T12:05:22.042Z,27.66
2017-07-09T12:07:49.503Z,27.75
2017-07-09T12:10:16.985Z,27.68
2017-07-09T12:12:44.446Z,27.29
2017-07-09T12:15:11.927Z,26.81
2017-07-09T12:17:39.379Z,27.33
2017-07-09T12:20:06.870Z,27.32
2017-07-09T12:22:34.330Z,27.29
2017-07-09T12:25:01.789Z,26.82
2017-07-09T12:27:29.241Z,26.92
2017-07-09T12:29:56.719Z,27.17
2017-07-09T12:32:24.165Z,28.08
2017-07-09T12:34:51.648Z,28.41
2017-07-09T12:37:19.133Z,27.97
2017-07-09T12:39:46.590Z,28.71
2017-07-09T12:42:14.077Z,28.93
2017-07-09T12:44:41.531Z,29.16
2017-07-09T12:47:08.988Z,29.99
2017-07-09T12:49:36.463Z,30.40
2017-07-09T12:52:03.915Z,30.65
2017-07-09T12:54:31.523Z,30.11
2017-07-09T12:56:58.978Z,30.19
2017-07-09T12:59:26.433Z,30.89
2017-07-09T13:01:53.904Z,30.85
2017-07-09T13:04:21.364Z,29.39
2017-07-09T13:06:48.868Z,29.52
2017-07-09T13:09:16.329Z,29.76
2017-07-09T13:11:43.812Z,30.22
2017-07-09T13:14:11.273Z,29.94
2017-07-09T13:16:38.839Z,30.21
2017-07-09T13:19:06.293Z,30.18
2017-07-09T13:21:33.898Z,29.95
2017-07-09T13:24:01.378Z,30.83
2017-07-09T13:26:28.861Z,31.11
2017-07-09T13:28:56.585Z,30.93
2017-07-09T13:31:24.044Z,30.72
2017-07-09T13:33:51.507Z,29.97
2017-07-09T13:36:18.994Z,31.22
2017-07-09T13:38:46.448Z,30.76
2017-07-09T13:41:14.190Z,30.74
2017-07-09T13:43:41.656Z,31.93
2017-07-09T13:46:09.110Z,32.94
2017-07-09T13:48:36.591Z,33.51
2017-07-09T13:51:04.047Z,33.42
2017-07-09T13:53:31.506Z,35.05
2017-07-09T13:55:58.987Z,33.94
2017-07-09T13:58:26.444Z,31.93
2017-07-09T14:00:54.175Z,32.65
2017-07-09T14:03:21.639Z,32.20
2017-07-09T14:05:49.098Z,32.73
2017-07-09T14:08:16.588Z,34.50
2017-07-09T14:10:44.054Z,33.95
2017-07-09T14:13:11.535Z,33.96
2017-07-09T14:15:39.002Z,32.24
2017-07-09T14:18:06.463Z,31.91
2017-07-09T14:20:33.947Z,32.26
2017-07-09T14:23:01.417Z,32.85
2017-07-09T14:25:29.087Z,33.32
2017-07-09T14:27:56.541Z,34.82
2017-07-09T14:30:24.018Z,33.06
2017-07-09T14:32:51.495Z,33.01
2017-07-09T14:35:18.947Z,33.97
2017-07-09T14:37:46.428Z,34.15
2017-07-09T14:40:13.899Z,34.64
2017-07-09T14:42:41.350Z,34.62
2017-07-09T14:45:09.061Z,34.96
2017-07-09T14:47:36.520Z,36.07
2017-07-09T14:50:03.975Z,38.12
2017-07-09T14:52:31.613Z,37.21
2017-07-09T14:54:59.074Z,35.79
2017-07-09T14:57:26.527Z,35.08
2017-07-09T14:59:54.127Z,36.30
2017-07-09T15:02:21.583Z,36.00
2017-07-09T15:04:49.043Z,37.61
2017-07-09T15:07:16.811Z,38.06
2017-07-09T15:09:44.274Z,37.53
2017-07-09T15:12:11.757Z,35.99
2017-07-09T15:14:39.244Z,38.42
2017-07-09T15:17:06.739Z,38.35
2017-07-09T15:19:34.230Z,37.68
2017-07-09T15:22:01.706Z,39.17
2017-07-09T15:24:29.165Z,38.93
2017-07-09T15:26:56.646Z,38.93
2017-07-09T15:29:24.204Z,37.99
2017-07-09T15:31:51.684Z,37.87
2017-07-09T15:34:19.269Z,37.45
2017-07-09T15:36:46.737Z,38.57
2017-07-09T15:39:14.224Z,39.84
2017-07-09T15:41:41.691Z,38.89
2017-07-09T15:44:09.198Z,39.03
2017-07-09T15:46:36.642Z,39.22
2017-07-09T15:49:04.127Z,38.50
2017-07-09T15:51:31.622Z,38.60
2017-07-09T15:53:59.074Z,38.96
2017-07-09T15:56:26.540Z,38.83
2017-07-09T15:58:54.021Z,38.30
2017-07-09T16:01:21.471Z,36.74
2017-07-09T16:03:48.967Z,34.63
2017-07-09T16:06:16.422Z,36.46
2017-07-09T16:08:43.894Z,38.32
2017-07-09T16:11:11.382Z,36.60
2017-07-09T16:13:38.847Z,36.59
2017-07-09T16:16:06.333Z,36.02
2017-07-09T16:18:33.786Z,35.35
2017-07-09T16:21:01.279Z,35.34
2017-07-09T16:23:28.766Z,36.09
2017-07-09T16:25:56.232Z,35.10
2017-07-09T16:28:23.692Z,34.84
2017-07-09T16:30:51.158Z,34.57
2017-07-09T16:33:18.634Z,35.67
2017-07-09T16:35:46.103Z,35.90
2017-07-09T16:38:13.565Z,37.26
2017-07-09T16:40:41.068Z,35.86
2017-07-09T16:43:08.517Z,36.41
2017-07-09T16:45:35.977Z,35.82
2017-07-09T16:48:03.453Z,35.95
2017-07-09T16:50:30.928Z,34.84
2017-07-09T16:52:58.418Z,34.76
2017-07-09T16:55:25.886Z,33.83
2017-07-09T16:57:53.375Z,33.74
2017-07-09T17:00:20.843Z,33.38
2017-07-09T17:02:48.321Z,32.57
2017-07-09T17:05:15.797Z,31.68
2017-07-09T17:07:43.251Z,31.94
2017-07-09T17:10:10.758Z,31.15
2017-07-09T17:12:38.227Z,31.15
2017-07-09T17:15:05.702Z,31.13
2017-07-09T17:17:33.162Z,30.86
2017-07-09T17:20:00.686Z,30.36
2017-07-09T17:22:28.145Z,30.19
2017-07-09T17:24:55.617Z,30.46
2017-07-09T17:27:23.105Z,30.38
2017-07-09T17:29:50.568Z,29.73
2017-07-09T17:32:18.043Z,29.74
2017-07-09T17:34:45.503Z,30.03
2017-07-09T17:37:12.997Z,29.92
2017-07-09T17:39:40.447Z,29.45
2017-07-09T17:42:07.897Z,29.56
2017-07-09T17:44:35.391Z,29.26
2017-07-09T17:47:02.850Z,29.30
2017-07-09T17:49:30.364Z,29.20
2017-07-09T17:51:57.830Z,28.78
2017-07-09T17:54:25.295Z,28.67
2017-07-09T17:56:52.875Z,28.53
2017-07-09T17:59:20.331Z,28.44
2017-07-09T18:01:47.798Z,28.23
2017-07-09T18:04:15.271Z,28.34
2017-07-09T18:06:42.782Z,28.40
2017-07-09T18:09:10.279Z,28.14
2017-07-09T18:11:38.150Z,28.26
2017-07-09T18:14:05.602Z,28.16
2017-07-09T18:16:33.070Z,28.14
2017-07-09T18:19:00.558Z,28.08
2017-07-09T18:21:28.031Z,28.04
2017-07-09T18:23:55.758Z,28.02
2017-07-09T18:26:23.207Z,27.94
2017-07-09T18:28:50.728Z,27.90
2017-07-09T18:31:18.210Z,28.00
2017-07-09T18:33:45.680Z,27.95
2017-07-09T18:36:13.376Z,27.95
2017-07-09T18:38:40.843Z,27.92
2017-07-09T18:41:08.298Z,27.77
2017-07-09T18:43:35.799Z,27.63
2017-07-09T18:46:03.281Z,27.48
2017-07-09T18:48:30.742Z,27.14
2017-07-09T18:50:58.222Z,26.88
2017-07-09T18:53:25.738Z,26.45
2017-07-09T18:55:53.205Z,25.75
2017-07-09T18:58:20.678Z,24.98
2017-07-09T19:00:48.156Z,23.20
2017-07-09T19:03:15.614Z,22.61
2017-07-09T19:05:43.207Z,22.61
2017-07-09T19:08:10.673Z,22.59
2017-07-09T19:10:38.164Z,22.87
2017-07-09T19:13:05.701Z,22.94
2017-07-09T19:15:33.170Z,22.89
2017-07-09T19:18:00.717Z,22.79
2017-07-09T19:20:28.205Z,22.77
2017-07-09T19:22:55.680Z,22.78
2017-07-09T19:25:23.215Z,22.72
2017-07-09T19:27:50.749Z,22.69
2017-07-09T19:30:18.264Z,22.66
2017-07-09T19:32:45.780Z,22.44
2017-07-09T19:35:13.648Z,22.37
2017-07-09T19:37:41.142Z,22.33
2017-07-09T19:40:08.794Z,22.22
2017-07-09T19:42:36.309Z,22.28
2017-07-09T19:45:03.790Z,22.26
2017-07-09T19:47:31.590Z,22.20
2017-07-09T19:49:59.254Z,22.09
2017-07-09T19:52:26.873Z,21.95
2017-07-09T19:54:54.395Z,21.76
2017-07-09T19:57:21.899Z,21.61
2017-07-09T19:59:49.400Z,21.46
2017-07-09T20:02:16.884Z,21.41
2017-07-09T20:04:44.378Z,21.35
2017-07-09T20:07:12.213Z,21.29
2017-07-09T20:09:39.704Z,21.31
2017-07-09T20:12:07.248Z,21.29
2017-07-09T20:14:34.722Z,21.24
2017-07-09T20:17:03.091Z,21.17
2017-07-09T20:19:30.578Z,21.15
2017-07-09T20:21:58.057Z,21.18
2017-07-09T20:24:25.543Z,21.16
2017-07-09T20:26:53.043Z,21.04
2017-07-09T20:29:20.500Z,20.99
2017-07-09T20:31:47.959Z,20.93
2017-07-09T20:34:15.450Z,20.94
2017-07-09T20:36:42.916Z,20.96
2017-07-09T20:39:10.403Z,20.98
2017-07-09T20:41:37.874Z,20.97
2017-07-09T20:44:05.364Z,20.85
2017-07-09T20:46:32.822Z,20.88
2017-07-09T20:49:00.488Z,20.81
2017-07-09T20:51:27.986Z,20.72
2017-07-09T20:53:55.767Z,20.68
2017-07-09T20:56:23.505Z,20.64
2017-07-09T20:58:50.969Z,20.65
2017-07-09T21:01:18.434Z,20.82
2017-07-09T21:03:46.196Z,20.67
2017-07-09T21:06:13.664Z,20.77
2017-07-09T21:08:41.119Z,20.67
2017-07-09T21:11:08.606Z,20.68
2017-07-09T21:13:36.073Z,20.69
2017-07-09T21:16:03.654Z,20.75
2017-07-09T21:18:31.107Z,20.70
2017-07-09T21:20:58.585Z,20.62
2017-07-09T21:23:26.073Z,20.72
2017-07-09T21:25:53.543Z,20.61
2017-07-09T21:28:21.015Z,20.63
2017-07-09T21:30:48.510Z,20.65
2017-07-09T21:33:16.314Z,20.62
2017-07-09T21:35:43.769Z,20.78
2017-07-09T21:38:11.234Z,20.76
2017-07-09T21:40:38.714Z,20.73
2017-07-09T21:43:06.205Z,20.57
2017-07-09T21:45:33.670Z,20.52
2017-07-09T21:48:01.158Z,20.57
2017-07-09T21:50:28.643Z,20.63
2017-07-09T21:52:56.115Z,20.62
2017-07-09T21:55:23.596Z,20.71
2017-07-09T21:57:51.087Z,20.75
2017-07-09T22:00:18.583Z,20.76
2017-07-09T22:02:46.046Z,20.78
2017-07-09T22:05:13.549Z,20.79
2017-07-09T22:07:41.023Z,20.80
2017-07-09T22:10:08.497Z,20.76
2017-07-09T22:12:35.959Z,20.78
2017-07-09T22:15:03.754Z,20.80
2017-07-09T22:17:31.220Z,20.72
2017-07-09T22:19:58.682Z,20.78
2017-07-09T22:22:26.166Z,20.77
2017-07-09T22:24:53.627Z,20.79
2017-07-09T22:27:21.108Z,20.76
2017-07-09T22:29:48.596Z,20.80
2017-07-09T22:32:16.051Z,20.78
2017-07-09T22:34:43.547Z,20.71
2017-07-09T22:37:11.159Z,20.74
2017-07-09T22:39:38.618Z,20.77
2017-07-09T22:42:06.083Z,20.77
2017-07-09T22:44:33.595Z,20.72
2017-07-09T22:47:01.057Z,20.79
2017-07-09T22:49:28.513Z,20.79
2017-07-09T22:51:55.989Z,20.82
2017-07-09T22:54:23.471Z,20.72
2017-07-09T22:56:50.937Z,20.89
2017-07-09T22:59:18.422Z,20.88
2017-07-09T23:01:45.883Z,20.89
2017-07-09T23:04:13.366Z,20.83
2017-07-09T23:06:40.843Z,20.78
2017-07-09T23:09:08.337Z,20.83
2017-07-09T23:11:35.828Z,20.86
2017-07-09T23:14:03.279Z,20.76
2017-07-09T23:16:30.761Z,20.77
2017-07-09T23:18:58.229Z,20.76
2017-07-09T23:21:25.731Z,20.69
2017-07-09T23:23:53.188Z,20.72
2017-07-09T23:26:20.651Z,20.55
2017-07-09T23:28:48.146Z,20.36
2017-07-09T23:31:15.631Z,20.21
2017-07-09T23:33:43.138Z,20.22
2017-07-09T23:36:10.603Z,20.22
2017-07-09T23:38:38.063Z,20.33
2017-07-09T23:41:05.561Z,20.28
2017-07-09T23:43:33.038Z,20.25
2017-07-09T23:46:00.497Z,20.29
2017-07-09T23:48:27.977Z,20.20
2017-07-09T23:50:55.466Z,20.21
2017-07-09T23:53:22.951Z,20.18
2017-07-09T23:55:50.415Z,20.12
2017-07-09T23:58:17.895Z,20.02
